createdAt,value
2022-09-15T00:00:32.408Z,11.56
2022-09-15T00:01:32.372Z,11.54
2022-09-15T00:02:32.484Z,11.52
2022-09-15T00:03:32.337Z,11.47
2022-09-15T00:04:32.289Z,11.45
2022-09-15T00:05:32.244Z,11.44
2022-09-15T00:06:32.981Z,11.48
2022-09-15T00:07:32.238Z,11.54
2022-09-15T00:08:32.946Z,11.59
2022-09-15T00:09:32.447Z,11.68
2022-09-15T00:10:32.546Z,11.66
2022-09-15T00:13:32.713Z,11.59
2022-09-15T00:14:32.321Z,11.53
2022-09-15T00:15:32.320Z,11.49
2022-09-15T00:16:33.106Z,11.57
2022-09-15T00:17:32.285Z,11.66
2022-09-15T00:18:32.404Z,11.73
2022-09-15T00:19:32.246Z,11.74
2022-09-15T00:21:34.685Z,11.72
2022-09-15T00:22:32.253Z,11.75
2022-09-15T00:24:32.911Z,11.87
2022-09-15T00:25:32.222Z,11.97
2022-09-15T00:26:32.921Z,12.01
2022-09-15T00:27:33.941Z,11.90
2022-09-15T00:28:33.221Z,11.77
2022-09-15T00:29:32.710Z,11.66
2022-09-15T00:30:32.261Z,11.62
2022-09-15T00:31:33.579Z,11.58
2022-09-15T00:32:32.580Z,11.53
2022-09-15T00:33:32.244Z,11.50
2022-09-15T00:34:32.224Z,11.54
2022-09-15T00:35:32.272Z,11.58
2022-09-15T00:36:32.734Z,11.48
2022-09-15T00:37:32.336Z,11.41
2022-09-15T00:38:33.065Z,11.38
2022-09-15T00:39:32.253Z,11.30
2022-09-15T00:40:32.394Z,11.18
2022-09-15T00:41:32.721Z,11.08
2022-09-15T00:42:32.412Z,11.03
2022-09-15T00:43:50.508Z,11.01
2022-09-15T00:44:50.443Z,11.00
2022-09-15T00:46:36.222Z,11.01
2022-09-15T00:47:36.883Z,11.08
2022-09-15T00:48:32.565Z,11.14
2022-09-15T00:49:35.450Z,11.28
2022-09-15T00:50:35.044Z,11.40
2022-09-15T00:51:36.022Z,11.49
2022-09-15T00:52:39.926Z,11.46
2022-09-15T00:53:33.602Z,11.40
2022-09-15T00:54:43.111Z,11.35
2022-09-15T00:55:38.446Z,11.33
2022-09-15T00:57:35.467Z,11.32
2022-09-15T00:58:48.626Z,11.23
2022-09-15T00:59:35.913Z,11.13
2022-09-15T01:00:32.231Z,11.07
2022-09-15T01:02:34.321Z,11.16
2022-09-15T01:03:34.383Z,11.24
2022-09-15T01:04:32.418Z,11.30
2022-09-15T01:05:38.768Z,11.28
2022-09-15T01:06:36.885Z,11.24
2022-09-15T01:07:38.821Z,11.27
2022-09-15T01:08:39.692Z,11.30
2022-09-15T01:09:37.840Z,11.33
2022-09-15T01:10:35.175Z,11.37
2022-09-15T01:12:32.528Z,11.33
2022-09-15T01:13:32.291Z,11.27
2022-09-15T01:14:32.274Z,11.18
2022-09-15T01:15:45.036Z,11.19
2022-09-15T01:16:44.964Z,11.22
2022-09-15T01:17:36.278Z,11.18
2022-09-15T01:18:45.515Z,11.22
2022-09-15T01:19:50.782Z,11.20
2022-09-15T01:21:42.851Z,11.22
2022-09-15T01:22:48.586Z,11.31
2022-09-15T01:23:50.312Z,11.39
2022-09-15T01:24:45.023Z,11.43
2022-09-15T01:25:49.135Z,11.47
2022-09-15T01:27:48.832Z,11.49
2022-09-15T01:28:43.376Z,11.45
2022-09-15T01:29:47.862Z,11.50
2022-09-15T01:30:44.286Z,11.63
2022-09-15T01:31:37.027Z,11.74
2022-09-15T01:32:45.064Z,11.79
2022-09-15T01:33:42.210Z,11.73
2022-09-15T01:34:43.861Z,11.59
2022-09-15T01:35:48.538Z,11.31
2022-09-15T01:36:44.246Z,10.98
2022-09-15T01:37:40.659Z,10.72
2022-09-15T01:38:48.676Z,10.54
2022-09-15T01:39:40.570Z,10.38
2022-09-15T01:40:40.255Z,10.25
2022-09-15T01:41:37.445Z,10.23
2022-09-15T01:42:33.748Z,10.17
2022-09-15T01:43:36.305Z,10.20
2022-09-15T01:44:39.644Z,10.24
2022-09-15T01:45:35.998Z,10.30
2022-09-15T01:46:36.563Z,10.39
2022-09-15T01:47:33.438Z,10.48
2022-09-15T01:48:35.483Z,10.60
2022-09-15T01:49:39.185Z,10.72
2022-09-15T01:50:36.816Z,10.84
2022-09-15T01:51:34.005Z,11.01
2022-09-15T01:52:33.857Z,11.18
2022-09-15T01:53:32.370Z,11.34
2022-09-15T01:54:37.802Z,11.45
2022-09-15T01:55:41.067Z,11.47
2022-09-15T01:56:32.702Z,11.45
2022-09-15T01:57:33.464Z,11.39
2022-09-15T01:58:32.867Z,11.30
2022-09-15T01:59:32.247Z,11.19
2022-09-15T02:00:34.622Z,11.13
2022-09-15T02:01:47.315Z,11.14
2022-09-15T02:02:38.984Z,11.21
2022-09-15T02:03:40.252Z,11.24
2022-09-15T02:04:41.551Z,11.30
2022-09-15T02:05:35.595Z,11.37
2022-09-15T02:06:45.121Z,11.39
2022-09-15T02:07:45.580Z,11.42
2022-09-15T02:08:40.910Z,11.43
2022-09-15T02:09:38.968Z,11.42
2022-09-15T02:10:41.347Z,11.39
2022-09-15T02:11:32.983Z,11.35
2022-09-15T02:12:43.903Z,11.26
2022-09-15T02:13:39.315Z,11.17
2022-09-15T02:14:38.169Z,11.07
2022-09-15T02:15:37.868Z,10.95
2022-09-15T02:16:35.913Z,10.79
2022-09-15T02:17:35.581Z,10.60
2022-09-15T02:18:45.103Z,10.41
2022-09-15T02:19:36.589Z,10.10
2022-09-15T02:20:39.677Z,9.86
2022-09-15T02:21:40.673Z,9.65
2022-09-15T02:22:37.967Z,9.47
2022-09-15T02:23:38.594Z,9.36
2022-09-15T02:24:40.107Z,9.24
2022-09-15T02:25:35.818Z,9.16
2022-09-15T02:26:35.923Z,9.05
2022-09-15T02:27:37.892Z,8.98
2022-09-15T02:28:38.753Z,8.96
2022-09-15T02:29:37.341Z,8.92
2022-09-15T02:30:36.523Z,8.90
2022-09-15T02:32:36.156Z,8.86
2022-09-15T02:34:36.780Z,8.85
2022-09-15T02:35:35.181Z,8.84
2022-09-15T02:36:32.734Z,8.86
2022-09-15T02:38:39.374Z,8.88
2022-09-15T02:40:32.883Z,8.90
2022-09-15T02:41:34.070Z,8.94
2022-09-15T02:42:33.749Z,8.98
2022-09-15T02:43:33.704Z,9.06
2022-09-15T02:44:32.423Z,9.12
2022-09-15T02:45:32.949Z,9.20
2022-09-15T02:46:33.557Z,9.28
2022-09-15T02:47:32.287Z,9.35
2022-09-15T02:48:32.167Z,9.46
2022-09-15T02:49:32.473Z,9.60
2022-09-15T02:50:32.369Z,9.72
2022-09-15T02:51:32.200Z,9.86
2022-09-15T02:52:32.402Z,10.00
2022-09-15T02:53:32.158Z,10.07
2022-09-15T02:54:32.268Z,10.14
2022-09-15T02:55:32.341Z,10.16
2022-09-15T02:56:32.183Z,10.20
2022-09-15T02:57:32.127Z,10.24
2022-09-15T02:58:32.311Z,10.30
2022-09-15T02:59:41.514Z,10.34
2022-09-15T03:00:32.291Z,10.37
2022-09-15T03:01:34.953Z,10.40
2022-09-15T03:02:32.341Z,10.41
2022-09-15T03:03:32.967Z,10.43
2022-09-15T03:04:32.144Z,10.47
2022-09-15T03:05:32.264Z,10.51
2022-09-15T03:06:35.006Z,10.50
2022-09-15T03:08:32.113Z,10.51
2022-09-15T03:10:33.686Z,10.48
2022-09-15T03:11:33.260Z,10.47
2022-09-15T03:12:32.406Z,10.41
2022-09-15T03:13:32.120Z,10.36
2022-09-15T03:14:32.890Z,10.32
2022-09-15T03:15:33.490Z,10.27
2022-09-15T03:16:34.694Z,10.23
2022-09-15T03:17:37.233Z,10.19
2022-09-15T03:18:33.303Z,10.15
2022-09-15T03:19:32.527Z,10.10
2022-09-15T03:20:32.148Z,10.04
2022-09-15T03:21:32.110Z,9.91
2022-09-15T03:22:32.595Z,9.79
2022-09-15T03:23:32.358Z,9.75
2022-09-15T03:24:32.119Z,9.71
2022-09-15T03:25:32.864Z,9.67
2022-09-15T03:26:32.366Z,9.65
2022-09-15T03:27:32.594Z,9.64
2022-09-15T03:28:32.488Z,9.63
2022-09-15T03:29:32.161Z,9.61
2022-09-15T03:30:32.109Z,9.57
2022-09-15T03:31:32.191Z,9.52
2022-09-15T03:32:32.117Z,9.49
2022-09-15T03:33:32.274Z,9.46
2022-09-15T03:34:32.192Z,9.45
2022-09-15T03:35:32.086Z,9.48
2022-09-15T03:36:32.149Z,9.51
2022-09-15T03:39:32.215Z,9.50
2022-09-15T03:40:33.926Z,9.51
2022-09-15T03:41:32.101Z,9.54
2022-09-15T03:42:32.495Z,9.55
2022-09-15T03:43:33.146Z,9.54
2022-09-15T03:44:32.121Z,9.52
2022-09-15T03:45:32.139Z,9.53
2022-09-15T03:46:32.289Z,9.54
2022-09-15T03:47:32.866Z,9.53
2022-09-15T03:49:32.244Z,9.50
2022-09-15T03:50:32.774Z,9.49
2022-09-15T03:51:32.096Z,9.50
2022-09-15T03:52:32.724Z,9.51
2022-09-15T03:53:34.558Z,9.59
2022-09-15T03:54:32.508Z,9.67
2022-09-15T03:55:32.237Z,9.78
2022-09-15T03:56:33.347Z,9.91
2022-09-15T03:57:32.111Z,10.01
2022-09-15T03:58:32.128Z,10.09
2022-09-15T03:59:32.101Z,10.17
2022-09-15T04:00:32.343Z,10.21
2022-09-15T04:01:32.885Z,10.23
2022-09-15T04:02:32.197Z,10.28
2022-09-15T04:03:32.667Z,10.31
2022-09-15T04:04:32.275Z,10.32
2022-09-15T04:05:32.127Z,10.37
2022-09-15T04:06:32.036Z,10.39
2022-09-15T04:07:32.163Z,10.41
2022-09-15T04:09:32.161Z,10.36
2022-09-15T04:10:32.599Z,10.31
2022-09-15T04:11:33.435Z,10.24
2022-09-15T04:12:32.578Z,10.17
2022-09-15T04:13:32.343Z,10.15
2022-09-15T04:14:32.172Z,10.12
2022-09-15T04:15:32.073Z,10.09
2022-09-15T04:16:32.235Z,10.06
2022-09-15T04:17:32.061Z,10.03
2022-09-15T04:18:33.398Z,9.99
2022-09-15T04:19:32.133Z,9.92
2022-09-15T04:20:32.834Z,9.87
2022-09-15T04:21:32.252Z,9.82
2022-09-15T04:22:32.685Z,9.81
2022-09-15T04:23:32.251Z,9.80
2022-09-15T04:24:32.191Z,9.79
2022-09-15T04:28:35.430Z,9.77
2022-09-15T04:29:32.140Z,9.73
2022-09-15T04:30:32.041Z,9.70
2022-09-15T04:31:33.216Z,9.62
2022-09-15T04:32:32.131Z,9.56
2022-09-15T04:33:32.710Z,9.45
2022-09-15T04:34:32.114Z,9.36
2022-09-15T04:35:32.104Z,9.24
2022-09-15T04:36:32.376Z,9.12
2022-09-15T04:37:33.564Z,9.03
2022-09-15T04:38:32.380Z,8.94
2022-09-15T04:39:32.123Z,8.89
2022-09-15T04:40:32.381Z,8.91
2022-09-15T04:41:33.674Z,8.94
2022-09-15T04:42:32.079Z,9.00
2022-09-15T04:43:32.669Z,9.05
2022-09-15T04:44:32.781Z,9.14
2022-09-15T04:45:33.592Z,9.19
2022-09-15T04:46:32.208Z,9.22
2022-09-15T04:48:32.456Z,9.18
2022-09-15T04:49:32.092Z,9.15
2022-09-15T04:50:34.015Z,9.14
2022-09-15T04:51:32.106Z,9.13
2022-09-15T04:54:32.098Z,9.11
2022-09-15T04:55:34.099Z,9.06
2022-09-15T04:56:32.149Z,9.01
2022-09-15T04:57:32.304Z,8.96
2022-09-15T04:58:36.159Z,8.91
2022-09-15T04:59:32.013Z,8.83
2022-09-15T05:00:35.159Z,8.71
2022-09-15T05:01:34.631Z,8.56
2022-09-15T05:02:32.132Z,8.42
2022-09-15T05:03:32.033Z,8.28
2022-09-15T05:04:32.129Z,8.22
2022-09-15T05:05:35.123Z,8.17
2022-09-15T05:06:32.698Z,8.12
2022-09-15T05:07:32.123Z,8.10
2022-09-15T05:09:32.029Z,8.11
2022-09-15T05:10:32.080Z,8.15
2022-09-15T05:11:33.002Z,8.18
2022-09-15T05:12:32.042Z,8.23
2022-09-15T05:13:32.189Z,8.27
2022-09-15T05:14:32.359Z,8.32
2022-09-15T05:15:32.042Z,8.36
2022-09-15T05:16:32.355Z,8.39
2022-09-15T05:17:32.870Z,8.41
2022-09-15T05:18:33.263Z,8.43
2022-09-15T05:19:32.256Z,8.46
2022-09-15T05:20:32.030Z,8.48
2022-09-15T05:21:32.411Z,8.51
2022-09-15T05:22:32.440Z,8.54
2022-09-15T05:23:32.318Z,8.57
2022-09-15T05:24:32.056Z,8.60
2022-09-15T05:25:32.013Z,8.64
2022-09-15T05:26:32.122Z,8.68
2022-09-15T05:27:34.706Z,8.73
2022-09-15T05:28:34.953Z,8.78
2022-09-15T05:29:32.078Z,8.81
2022-09-15T05:32:32.118Z,8.80
2022-09-15T05:33:32.043Z,8.78
2022-09-15T05:34:32.091Z,8.77
2022-09-15T05:35:32.084Z,8.78
2022-09-15T05:36:32.775Z,8.76
2022-09-15T05:37:33.779Z,8.75
2022-09-15T05:38:33.062Z,8.74
2022-09-15T05:39:32.255Z,8.72
2022-09-15T05:40:33.922Z,8.70
2022-09-15T05:41:32.058Z,8.68
2022-09-15T05:42:32.232Z,8.66
2022-09-15T05:43:34.190Z,8.62
2022-09-15T05:44:32.186Z,8.63
2022-09-15T05:46:32.271Z,8.67
2022-09-15T05:47:32.063Z,8.69
2022-09-15T05:48:32.226Z,8.70
2022-09-15T05:49:33.114Z,8.69
2022-09-15T05:50:32.169Z,8.68
2022-09-15T05:51:32.033Z,8.65
2022-09-15T05:52:32.381Z,8.60
2022-09-15T05:53:34.846Z,8.56
2022-09-15T05:54:32.019Z,8.51
2022-09-15T05:55:37.253Z,8.48
2022-09-15T05:56:32.247Z,8.45
2022-09-15T05:57:32.441Z,8.43
2022-09-15T05:58:32.756Z,8.41
2022-09-15T05:59:32.243Z,8.38
2022-09-15T06:00:32.067Z,8.34
2022-09-15T06:01:32.253Z,8.26
2022-09-15T06:02:32.249Z,8.19
2022-09-15T06:03:32.748Z,8.11
2022-09-15T06:04:32.485Z,8.06
2022-09-15T06:05:32.142Z,8.01
2022-09-15T06:06:33.463Z,7.97
2022-09-15T06:07:32.049Z,7.95
2022-09-15T06:08:33.835Z,7.92
2022-09-15T06:09:32.069Z,7.90
2022-09-15T06:10:33.847Z,7.87
2022-09-15T06:11:34.150Z,7.84
2022-09-15T06:12:32.311Z,7.85
2022-09-15T06:13:32.190Z,7.88
2022-09-15T06:14:32.016Z,7.90
2022-09-15T06:15:33.002Z,7.93
2022-09-15T06:16:34.903Z,7.98
2022-09-15T06:17:34.280Z,8.01
2022-09-15T06:18:32.939Z,8.05
2022-09-15T06:19:33.668Z,8.08
2022-09-15T06:20:32.010Z,8.12
2022-09-15T06:21:33.575Z,8.17
2022-09-15T06:22:32.218Z,8.23
2022-09-15T06:23:32.621Z,8.28
2022-09-15T06:24:32.019Z,8.31
2022-09-15T06:25:32.005Z,8.35
2022-09-15T06:26:34.629Z,8.37
2022-09-15T06:27:32.244Z,8.40
2022-09-15T06:28:32.056Z,8.44
2022-09-15T06:29:32.679Z,8.45
2022-09-15T06:31:34.369Z,8.46
2022-09-15T06:32:32.041Z,8.45
2022-09-15T06:33:32.039Z,8.43
2022-09-15T06:34:33.123Z,8.38
2022-09-15T06:35:32.315Z,8.34
2022-09-15T06:36:33.206Z,8.31
2022-09-15T06:37:32.461Z,8.28
2022-09-15T06:38:32.081Z,8.25
2022-09-15T06:39:32.030Z,8.22
2022-09-15T06:40:32.115Z,8.20
2022-09-15T06:42:32.049Z,8.18
2022-09-15T06:47:34.266Z,8.19
2022-09-15T06:49:32.058Z,8.20
2022-09-15T06:50:32.003Z,8.21
2022-09-15T06:51:35.625Z,8.25
2022-09-15T06:52:32.003Z,8.27
2022-09-15T06:53:34.210Z,8.30
2022-09-15T06:54:32.082Z,8.34
2022-09-15T06:55:32.247Z,8.36
2022-09-15T06:56:37.655Z,8.39
2022-09-15T06:57:32.066Z,8.41
2022-09-15T06:58:32.726Z,8.42
2022-09-15T06:59:32.091Z,8.45
2022-09-15T07:00:32.276Z,8.49
2022-09-15T07:01:33.430Z,8.51
2022-09-15T07:02:32.154Z,8.54
2022-09-15T07:03:32.501Z,8.56
2022-09-15T07:04:31.982Z,8.60
2022-09-15T07:05:34.060Z,8.62
2022-09-15T07:06:34.126Z,8.66
2022-09-15T07:07:32.577Z,8.69
2022-09-15T07:08:32.227Z,8.72
2022-09-15T07:09:32.028Z,8.73
2022-09-15T07:11:32.663Z,8.74
2022-09-15T07:12:32.689Z,8.75
2022-09-15T07:14:32.118Z,8.73
2022-09-15T07:17:32.070Z,8.72
2022-09-15T07:18:32.895Z,8.75
2022-09-15T07:19:32.101Z,8.76
2022-09-15T07:23:32.214Z,8.77
2022-09-15T07:24:31.951Z,8.76
2022-09-15T07:26:34.085Z,8.75
2022-09-15T07:27:32.124Z,8.74
2022-09-15T07:28:32.015Z,8.75
2022-09-15T07:29:35.872Z,8.76
2022-09-15T07:30:32.380Z,8.77
2022-09-15T07:32:31.988Z,8.79
2022-09-15T07:33:32.078Z,8.81
2022-09-15T07:35:32.042Z,8.82
2022-09-15T07:37:33.356Z,8.83
2022-09-15T07:39:33.401Z,8.84
2022-09-15T07:40:34.392Z,8.85
2022-09-15T07:41:33.265Z,8.89
2022-09-15T07:42:35.446Z,8.90
2022-09-15T07:43:32.167Z,8.92
2022-09-15T07:44:32.710Z,8.94
2022-09-15T07:45:32.841Z,8.95
2022-09-15T07:46:33.532Z,8.97
2022-09-15T07:47:31.952Z,8.99
2022-09-15T07:48:32.302Z,9.00
2022-09-15T07:49:31.965Z,9.02
2022-09-15T07:50:32.039Z,9.03
2022-09-15T07:52:32.015Z,9.04
2022-09-15T07:53:32.311Z,9.05
2022-09-15T07:55:33.054Z,9.06
2022-09-15T07:57:31.967Z,9.03
2022-09-15T07:58:34.190Z,8.91
2022-09-15T07:59:31.976Z,8.77
2022-09-15T08:00:32.096Z,8.61
2022-09-15T08:01:32.051Z,8.50
2022-09-15T08:02:31.996Z,8.41
2022-09-15T08:03:32.236Z,8.34
2022-09-15T08:04:32.013Z,8.28
2022-09-15T08:05:37.348Z,8.24
2022-09-15T08:06:31.964Z,8.23
2022-09-15T08:07:32.004Z,8.20
2022-09-15T08:08:32.427Z,8.18
2022-09-15T08:09:32.016Z,8.16
2022-09-15T08:10:32.120Z,8.15
2022-09-15T08:11:31.981Z,8.14
2022-09-15T08:12:32.001Z,8.13
2022-09-15T08:14:32.991Z,8.15
2022-09-15T08:15:32.309Z,8.17
2022-09-15T08:16:32.182Z,8.19
2022-09-15T08:17:32.596Z,8.24
2022-09-15T08:18:31.933Z,8.25
2022-09-15T08:19:33.934Z,8.26
2022-09-15T08:21:32.046Z,8.28
2022-09-15T08:22:31.987Z,8.30
2022-09-15T08:23:32.013Z,8.32
2022-09-15T08:24:32.032Z,8.35
2022-09-15T08:25:32.006Z,8.38
2022-09-15T08:26:36.478Z,8.41
2022-09-15T08:27:31.981Z,8.42
2022-09-15T08:28:31.969Z,8.45
2022-09-15T08:29:32.880Z,8.48
2022-09-15T08:30:31.936Z,8.50
2022-09-15T08:31:32.012Z,8.52
2022-09-15T08:33:32.534Z,8.50
2022-09-15T08:34:32.174Z,8.48
2022-09-15T08:35:32.901Z,8.49
2022-09-15T08:36:31.983Z,8.48
2022-09-15T08:37:31.952Z,8.49
2022-09-15T08:40:36.861Z,8.50
2022-09-15T08:41:36.066Z,8.52
2022-09-15T08:42:31.986Z,8.54
2022-09-15T08:43:38.628Z,8.57
2022-09-15T08:44:40.161Z,8.60
2022-09-15T08:45:42.526Z,8.62
2022-09-15T08:46:39.866Z,8.64
2022-09-15T08:47:37.911Z,8.67
2022-09-15T08:48:41.274Z,8.69
2022-09-15T08:49:51.489Z,8.72
2022-09-15T08:50:39.085Z,8.75
2022-09-15T08:51:42.145Z,8.78
2022-09-15T08:53:36.411Z,8.79
2022-09-15T08:55:39.805Z,8.77
2022-09-15T08:56:32.257Z,8.76
2022-09-15T08:57:32.063Z,8.73
2022-09-15T08:58:35.572Z,8.72
2022-09-15T08:59:35.063Z,8.69
2022-09-15T09:00:33.319Z,8.70
2022-09-15T09:01:43.093Z,8.71
2022-09-15T09:03:41.713Z,8.70
2022-09-15T09:04:50.018Z,8.69
2022-09-15T09:05:47.831Z,8.67
2022-09-15T09:06:38.963Z,8.65
2022-09-15T09:07:48.620Z,8.63
2022-09-15T09:08:50.369Z,8.62
2022-09-15T09:09:40.254Z,8.61
2022-09-15T09:10:38.353Z,8.60
2022-09-15T09:11:47.420Z,8.61
2022-09-15T09:12:43.632Z,8.62
2022-09-15T09:13:36.623Z,8.63
2022-09-15T09:14:37.445Z,8.62
2022-09-15T09:15:39.526Z,8.63
2022-09-15T09:16:48.194Z,8.62
2022-09-15T09:17:46.976Z,8.64
2022-09-15T09:18:50.100Z,8.65
2022-09-15T09:19:48.737Z,8.66
2022-09-15T09:21:38.357Z,8.67
2022-09-15T09:22:35.182Z,8.69
2022-09-15T09:23:34.763Z,8.72
2022-09-15T09:24:39.303Z,8.77
2022-09-15T09:25:31.980Z,8.81
2022-09-15T09:26:35.616Z,8.84
2022-09-15T09:27:35.255Z,8.85
2022-09-15T09:29:37.411Z,8.83
2022-09-15T09:30:35.158Z,8.85
2022-09-15T09:31:31.905Z,8.86
2022-09-15T09:32:40.743Z,8.87
2022-09-15T09:34:43.521Z,8.88
2022-09-15T09:36:32.203Z,8.87
2022-09-15T09:37:33.601Z,8.88
2022-09-15T09:38:35.931Z,8.89
2022-09-15T09:39:32.655Z,8.84
2022-09-15T09:40:32.999Z,8.75
2022-09-15T09:41:37.587Z,8.66
2022-09-15T09:42:37.263Z,8.53
2022-09-15T09:43:33.233Z,8.41
2022-09-15T09:44:32.876Z,8.33
2022-09-15T09:45:31.953Z,8.25
2022-09-15T09:46:32.292Z,8.17
2022-09-15T09:47:35.431Z,8.13
2022-09-15T09:48:32.638Z,8.07
2022-09-15T09:49:35.651Z,8.02
2022-09-15T09:50:34.977Z,7.94
2022-09-15T09:51:33.241Z,7.89
2022-09-15T09:52:38.332Z,7.81
2022-09-15T09:53:33.812Z,7.75
2022-09-15T09:54:34.044Z,7.72
2022-09-15T09:55:31.863Z,7.71
2022-09-15T09:58:31.878Z,7.73
2022-09-15T09:59:36.392Z,7.74
2022-09-15T10:00:35.961Z,7.76
2022-09-15T10:01:33.241Z,7.77
2022-09-15T10:02:31.895Z,7.78
2022-09-15T10:03:33.061Z,7.79
2022-09-15T10:05:31.946Z,7.81
2022-09-15T10:06:32.291Z,7.83
2022-09-15T10:08:32.348Z,7.84
2022-09-15T10:09:33.496Z,7.83
2022-09-15T10:11:45.432Z,7.82
2022-09-15T10:14:42.415Z,7.81
2022-09-15T10:17:42.577Z,7.82
2022-09-15T10:19:36.933Z,7.81
2022-09-15T10:20:35.834Z,7.82
2022-09-15T10:21:31.887Z,7.81
2022-09-15T10:22:35.465Z,7.83
2022-09-15T10:23:34.295Z,7.84
2022-09-15T10:24:36.394Z,7.85
2022-09-15T10:27:34.170Z,7.88
2022-09-15T10:28:31.898Z,7.90
2022-09-15T10:29:39.980Z,7.92
2022-09-15T10:30:31.832Z,7.93
2022-09-15T10:31:33.533Z,7.91
2022-09-15T10:32:32.680Z,7.86
2022-09-15T10:33:35.279Z,7.82
2022-09-15T10:34:32.788Z,7.76
2022-09-15T10:35:34.141Z,7.70
2022-09-15T10:36:33.231Z,7.62
2022-09-15T10:37:37.745Z,7.58
2022-09-15T10:38:44.556Z,7.52
2022-09-15T10:39:40.596Z,7.47
2022-09-15T10:40:42.477Z,7.45
2022-09-15T10:41:35.192Z,7.42
2022-09-15T10:42:50.022Z,7.39
2022-09-15T10:43:47.166Z,7.37
2022-09-15T10:44:46.685Z,7.36
2022-09-15T10:46:47.649Z,7.34
2022-09-15T10:49:50.040Z,7.32
2022-09-15T10:50:46.719Z,7.31
2022-09-15T10:51:46.653Z,7.29
2022-09-15T10:52:37.809Z,7.28
2022-09-15T10:53:39.207Z,7.27
2022-09-15T10:54:41.737Z,7.26
2022-09-15T10:55:52.262Z,7.24
2022-09-15T10:57:44.107Z,7.23
2022-09-15T11:00:44.760Z,7.22
2022-09-15T11:01:49.327Z,7.21
2022-09-15T11:03:49.911Z,7.20
2022-09-15T11:06:46.018Z,7.21
2022-09-15T11:07:44.666Z,7.22
2022-09-15T11:08:40.442Z,7.24
2022-09-15T11:09:38.148Z,7.26
2022-09-15T11:10:36.490Z,7.27
2022-09-15T11:11:37.378Z,7.28
2022-09-15T11:16:47.346Z,7.27
2022-09-15T11:17:40.518Z,7.25
2022-09-15T11:19:50.082Z,7.23
2022-09-15T11:20:44.102Z,7.21
2022-09-15T11:21:38.410Z,7.20
2022-09-15T11:23:40.158Z,7.19
2022-09-15T11:24:39.960Z,7.18
2022-09-15T11:25:36.692Z,7.17
2022-09-15T11:26:37.247Z,7.16
2022-09-15T11:29:35.566Z,7.17
2022-09-15T11:30:38.350Z,7.18
2022-09-15T11:31:38.888Z,7.19
2022-09-15T11:32:41.589Z,7.20
2022-09-15T11:33:41.032Z,7.21
2022-09-15T11:34:39.768Z,7.23
2022-09-15T11:35:43.164Z,7.24
2022-09-15T11:36:41.343Z,7.25
2022-09-15T11:38:48.343Z,7.28
2022-09-15T11:40:39.092Z,7.31
2022-09-15T11:41:43.604Z,7.32
2022-09-15T11:42:39.832Z,7.33
2022-09-15T11:43:40.511Z,7.32
2022-09-15T11:44:34.598Z,7.33
2022-09-15T11:46:45.441Z,7.34
2022-09-15T11:47:40.400Z,7.35
2022-09-15T11:48:44.339Z,7.34
2022-09-15T11:50:36.646Z,7.35
2022-09-15T11:52:40.544Z,7.34
2022-09-15T11:53:41.734Z,7.33
2022-09-15T11:54:42.070Z,7.34
2022-09-15T11:55:43.521Z,7.35
2022-09-15T11:56:39.533Z,7.34
2022-09-15T11:57:39.364Z,7.33
2022-09-15T11:58:45.332Z,7.32
2022-09-15T11:59:45.025Z,7.31
2022-09-15T12:01:42.420Z,7.32
2022-09-15T12:02:39.458Z,7.31
2022-09-15T12:04:36.110Z,7.30
2022-09-15T12:05:41.597Z,7.31
2022-09-15T12:09:31.845Z,7.30
2022-09-15T12:10:42.017Z,7.28
2022-09-15T12:11:37.125Z,7.29
2022-09-15T12:13:32.439Z,7.27
2022-09-15T12:14:36.927Z,7.28
2022-09-15T12:16:34.259Z,7.26
2022-09-15T12:17:41.855Z,7.25
2022-09-15T12:18:41.027Z,7.24
2022-09-15T12:19:41.908Z,7.25
2022-09-15T12:20:45.639Z,7.26
2022-09-15T12:21:36.146Z,7.27
2022-09-15T12:22:42.359Z,7.26
2022-09-15T12:23:39.289Z,7.25
2022-09-15T12:24:45.969Z,7.23
2022-09-15T12:25:42.013Z,7.21
2022-09-15T12:26:34.418Z,7.19
2022-09-15T12:27:32.210Z,7.18
2022-09-15T12:28:51.237Z,7.15
2022-09-15T12:29:42.489Z,7.14
2022-09-15T12:30:41.726Z,7.11
2022-09-15T12:31:33.459Z,7.07
2022-09-15T12:32:35.240Z,7.05
2022-09-15T12:33:44.417Z,7.02
2022-09-15T12:34:38.516Z,7.00
2022-09-15T12:35:33.674Z,6.99
2022-09-15T12:37:37.528Z,7.02
2022-09-15T12:38:31.844Z,7.05
2022-09-15T12:40:38.370Z,7.04
2022-09-15T12:41:32.762Z,7.03
2022-09-15T12:42:33.453Z,7.02
2022-09-15T12:43:31.961Z,7.00
2022-09-15T12:44:44.702Z,6.97
2022-09-15T12:45:36.366Z,6.95
2022-09-15T12:47:44.054Z,6.96
2022-09-15T12:52:32.718Z,6.98
2022-09-15T12:53:38.150Z,7.00
2022-09-15T12:54:34.741Z,7.01
2022-09-15T12:55:36.470Z,7.00
2022-09-15T12:57:35.030Z,6.99
2022-09-15T12:58:36.853Z,7.00
2022-09-15T13:00:45.639Z,7.02
2022-09-15T13:01:43.378Z,7.03
2022-09-15T13:02:45.173Z,7.04
2022-09-15T13:04:44.388Z,7.05
2022-09-15T13:05:46.273Z,7.06
2022-09-15T13:10:36.359Z,7.03
2022-09-15T13:11:42.322Z,7.00
2022-09-15T13:12:37.247Z,6.96
2022-09-15T13:13:40.873Z,6.94
2022-09-15T13:14:39.515Z,6.92
2022-09-15T13:16:37.890Z,6.89
2022-09-15T13:17:33.872Z,6.87
2022-09-15T13:18:34.575Z,6.88
2022-09-15T13:20:36.710Z,6.87
2022-09-15T13:21:34.922Z,6.85
2022-09-15T13:22:37.939Z,6.83
2022-09-15T13:23:37.546Z,6.80
2022-09-15T13:24:38.404Z,6.78
2022-09-15T13:25:32.315Z,6.75
2022-09-15T13:26:34.902Z,6.73
2022-09-15T13:27:38.652Z,6.70
2022-09-15T13:28:31.977Z,6.68
2022-09-15T13:29:33.241Z,6.67
2022-09-15T13:30:42.577Z,6.65
2022-09-15T13:31:48.826Z,6.62
2022-09-15T13:35:41.562Z,6.58
2022-09-15T13:38:40.655Z,6.55
2022-09-15T13:39:48.513Z,6.54
2022-09-15T13:40:49.905Z,6.52
2022-09-15T13:45:49.977Z,6.50
2022-09-15T13:46:43.524Z,6.49
2022-09-15T13:47:43.480Z,6.50
2022-09-15T13:48:49.901Z,6.51
2022-09-15T13:51:34.061Z,6.50
2022-09-15T13:55:35.464Z,6.52
2022-09-15T13:56:38.102Z,6.53
2022-09-15T13:59:34.114Z,6.51
2022-09-15T14:00:35.356Z,6.50
2022-09-15T14:01:35.559Z,6.48
2022-09-15T14:03:39.886Z,6.47
2022-09-15T14:05:34.619Z,6.44
2022-09-15T14:06:38.502Z,6.40
2022-09-15T14:07:32.751Z,6.37
2022-09-15T14:08:33.755Z,6.33
2022-09-15T14:09:38.750Z,6.34
2022-09-15T14:10:37.498Z,6.36
2022-09-15T14:11:34.186Z,6.40
2022-09-15T14:13:32.574Z,6.41
2022-09-15T14:14:38.549Z,6.43
2022-09-15T14:18:42.078Z,6.41
2022-09-15T14:19:34.332Z,6.40
2022-09-15T14:20:33.776Z,6.38
2022-09-15T14:22:34.002Z,6.37
2022-09-15T14:23:32.980Z,6.36
2022-09-15T14:25:31.747Z,6.35
2022-09-15T14:26:35.918Z,6.34
2022-09-15T14:27:34.435Z,6.33
2022-09-15T14:29:31.752Z,6.32
2022-09-15T14:30:33.333Z,6.31
2022-09-15T14:35:37.397Z,6.33
2022-09-15T14:36:33.964Z,6.37
2022-09-15T14:37:33.008Z,6.42
2022-09-15T14:38:31.671Z,6.47
2022-09-15T14:39:31.889Z,6.52
2022-09-15T14:40:37.719Z,6.56
2022-09-15T14:41:33.526Z,6.59
2022-09-15T14:42:35.911Z,6.61
2022-09-15T14:46:04.217Z,6.61
2022-09-15T14:46:38.470Z,6.62
2022-09-15T14:47:31.622Z,6.63
2022-09-15T14:48:31.816Z,6.62
2022-09-15T14:49:31.676Z,6.61
2022-09-15T14:50:33.273Z,6.59
2022-09-15T14:51:33.385Z,6.57
2022-09-15T14:52:38.261Z,6.56
2022-09-15T14:53:35.535Z,6.57
2022-09-15T14:54:37.690Z,6.58
2022-09-15T14:57:36.987Z,6.56
2022-09-15T14:58:42.719Z,6.52
2022-09-15T14:59:45.409Z,6.48
2022-09-15T15:00:37.932Z,6.45
2022-09-15T15:01:33.632Z,6.41
2022-09-15T15:02:43.986Z,6.39
2022-09-15T15:03:39.358Z,6.36
2022-09-15T15:04:40.527Z,6.33
2022-09-15T15:05:36.730Z,6.32
2022-09-15T15:06:38.312Z,6.29
2022-09-15T15:07:35.658Z,6.26
2022-09-15T15:08:42.879Z,6.25
2022-09-15T15:09:39.051Z,6.23
2022-09-15T15:10:35.684Z,6.19
2022-09-15T15:11:36.179Z,6.18
2022-09-15T15:15:33.282Z,6.17
2022-09-15T15:19:36.088Z,6.16
2022-09-15T15:20:31.867Z,6.15
2022-09-15T15:22:31.646Z,6.14
2022-09-15T15:23:32.933Z,6.15
2022-09-15T15:24:31.692Z,6.16
2022-09-15T15:25:33.183Z,6.17
2022-09-15T15:26:37.483Z,6.20
2022-09-15T15:27:41.726Z,6.22
2022-09-15T15:28:36.121Z,6.26
2022-09-15T15:29:44.701Z,6.27
2022-09-15T15:30:38.166Z,6.30
2022-09-15T15:31:32.077Z,6.33
2022-09-15T15:32:32.725Z,6.36
2022-09-15T15:33:31.874Z,6.39
2022-09-15T15:34:31.837Z,6.41
2022-09-15T15:35:33.543Z,6.42
2022-09-15T15:36:32.368Z,6.44
2022-09-15T15:37:34.570Z,6.46
2022-09-15T15:38:35.870Z,6.49
2022-09-15T15:39:31.791Z,6.51
2022-09-15T15:40:32.168Z,6.52
2022-09-15T15:42:31.805Z,6.54
2022-09-15T15:44:32.917Z,6.55
2022-09-15T15:46:50.055Z,6.54
2022-09-15T15:47:35.766Z,6.52
2022-09-15T15:48:37.790Z,6.49
2022-09-15T15:49:33.410Z,6.47
2022-09-15T15:50:33.190Z,6.46
2022-09-15T15:51:32.762Z,6.43
2022-09-15T15:53:32.030Z,6.41
2022-09-15T15:54:34.980Z,6.42
2022-09-15T15:55:40.407Z,6.43
2022-09-15T15:57:38.205Z,6.44
2022-09-15T15:58:31.623Z,6.46